createdAt,value
2023-01-03T00:01:24.574Z,8.74
2023-01-03T00:03:56.670Z,8.71
2023-01-03T00:06:26.598Z,8.79
2023-01-03T00:08:54.876Z,8.86
2023-01-03T00:11:45.932Z,8.83
2023-01-03T00:14:16.416Z,8.88
2023-01-03T00:16:43.018Z,8.89
2023-01-03T00:19:12.243Z,8.91
2023-01-03T00:21:39.592Z,8.89
2023-01-03T00:24:07.124Z,8.82
2023-01-03T00:26:34.484Z,8.82
2023-01-03T00:29:00.943Z,8.58
2023-01-03T00:31:27.595Z,8.54
2023-01-03T00:33:54.225Z,8.55
2023-01-03T00:36:21.130Z,8.68
2023-01-03T00:38:47.726Z,8.72
2023-01-03T00:41:16.808Z,8.81
2023-01-03T00:43:46.063Z,8.99
2023-01-03T00:46:14.440Z,8.85
2023-01-03T00:48:41.714Z,8.85
2023-01-03T00:51:11.520Z,9.05
2023-01-03T00:53:39.318Z,8.98
2023-01-03T00:56:08.254Z,8.93
2023-01-03T01:01:47.978Z,9.06
2023-01-03T01:04:27.758Z,9.08
2023-01-03T01:06:56.912Z,8.93
2023-01-03T01:09:30.397Z,8.91
2023-01-03T01:11:57.320Z,8.85
2023-01-03T01:14:26.720Z,8.89
2023-01-03T01:17:01.520Z,8.89
2023-01-03T01:19:32.685Z,8.85
2023-01-03T01:21:59.860Z,8.85
2023-01-03T01:24:27.959Z,8.86
2023-01-03T01:26:54.636Z,8.75
2023-01-03T01:29:21.546Z,8.81
2023-01-03T01:31:50.599Z,8.83
2023-01-03T01:34:17.903Z,8.76
2023-01-03T01:36:46.102Z,8.75
2023-01-03T01:39:15.557Z,8.68
2023-01-03T01:42:02.032Z,8.58
2023-01-03T01:44:52.178Z,8.58
2023-01-03T01:47:52.751Z,8.41
2023-01-03T01:50:29.443Z,8.40
2023-01-03T01:53:00.350Z,8.43
2023-01-03T01:55:37.073Z,8.31
2023-01-03T01:58:03.783Z,8.29
2023-01-03T02:00:30.591Z,8.16
2023-01-03T02:02:57.308Z,8.30
2023-01-03T02:05:25.253Z,8.14
2023-01-03T02:07:53.684Z,8.14
2023-01-03T02:10:31.814Z,8.00
2023-01-03T02:13:07.676Z,7.94
2023-01-03T02:15:57.262Z,7.87
2023-01-03T02:18:49.177Z,7.72
2023-01-03T02:21:34.176Z,7.69
2023-01-03T02:24:48.911Z,7.71
2023-01-03T02:27:37.803Z,7.55
2023-01-03T02:30:31.526Z,7.48
2023-01-03T02:33:14.593Z,7.61
2023-01-03T02:36:04.668Z,7.71
2023-01-03T02:38:46.299Z,7.71
2023-01-03T02:41:21.313Z,7.75
2023-01-03T02:43:56.181Z,7.65
2023-01-03T02:46:30.905Z,7.71
2023-01-03T02:49:01.384Z,7.71
2023-01-03T02:51:36.806Z,7.64
2023-01-03T02:54:06.712Z,7.69
2023-01-03T02:56:42.519Z,7.69
2023-01-03T02:59:14.855Z,7.59
2023-01-03T03:01:45.600Z,7.61
2023-01-03T03:04:14.667Z,7.61
2023-01-03T03:06:59.949Z,7.55
2023-01-03T03:09:26.500Z,7.56
2023-01-03T03:12:13.838Z,7.50
2023-01-03T03:14:47.419Z,7.55
2023-01-03T03:17:22.681Z,7.59
2023-01-03T03:20:14.366Z,7.62
2023-01-03T03:23:08.111Z,7.59
2023-01-03T03:25:34.591Z,7.71
2023-01-03T03:28:23.614Z,7.68
2023-01-03T03:30:54.241Z,7.65
2023-01-03T03:33:26.751Z,7.54
2023-01-03T03:36:18.921Z,7.45
2023-01-03T03:38:46.233Z,7.47
2023-01-03T03:41:41.855Z,7.36
2023-01-03T03:44:30.232Z,7.34
2023-01-03T03:47:05.238Z,7.36
2023-01-03T03:49:40.199Z,7.25
2023-01-03T03:52:11.851Z,7.05
2023-01-03T03:54:42.385Z,6.87
2023-01-03T03:57:27.911Z,6.62
2023-01-03T04:00:02.802Z,6.45
2023-01-03T04:02:33.375Z,6.32
2023-01-03T04:05:04.496Z,6.14
2023-01-03T04:07:31.066Z,6.08
2023-01-03T04:09:57.679Z,6.07
2023-01-03T04:12:24.557Z,5.90
2023-01-03T04:14:51.052Z,5.83
2023-01-03T04:17:17.607Z,5.70
2023-01-03T04:19:44.291Z,5.70
2023-01-03T04:22:10.746Z,5.71
2023-01-03T04:24:37.244Z,5.62
2023-01-03T04:27:03.999Z,5.59
2023-01-03T04:29:37.105Z,5.56
2023-01-03T04:32:06.420Z,5.62
2023-01-03T04:34:35.463Z,5.55
2023-01-03T04:37:02.072Z,5.56
2023-01-03T04:39:28.858Z,5.59
2023-01-03T04:41:55.700Z,5.67
2023-01-03T04:44:22.561Z,5.71
2023-01-03T04:46:52.701Z,5.71
2023-01-03T04:49:20.651Z,5.70
2023-01-03T04:51:47.551Z,5.80
2023-01-03T04:54:14.116Z,5.70
2023-01-03T04:56:42.139Z,5.62
2023-01-03T04:59:08.714Z,5.66
2023-01-03T05:01:35.408Z,5.69
2023-01-03T05:04:02.513Z,5.71
2023-01-03T05:06:29.515Z,5.89
2023-01-03T05:08:56.489Z,5.90
2023-01-03T05:11:23.167Z,5.95
2023-01-03T05:13:49.765Z,5.87
2023-01-03T05:16:18.166Z,5.82
2023-01-03T05:18:44.971Z,5.74
2023-01-03T05:21:35.609Z,5.76
2023-01-03T05:24:21.250Z,5.77
2023-01-03T05:26:48.328Z,5.80
2023-01-03T05:29:19.384Z,5.95
2023-01-03T05:31:46.354Z,6.03
2023-01-03T05:34:13.256Z,6.01
2023-01-03T05:36:40.028Z,5.97
2023-01-03T05:39:07.483Z,5.86
2023-01-03T05:41:54.904Z,5.76
2023-01-03T05:44:21.946Z,5.87
2023-01-03T05:46:49.533Z,5.91
2023-01-03T05:49:16.011Z,5.95
2023-01-03T05:51:42.795Z,6.04
2023-01-03T05:54:14.156Z,6.11
2023-01-03T05:56:41.067Z,6.14
2023-01-03T05:59:10.200Z,6.07
2023-01-03T06:01:37.041Z,6.07
2023-01-03T06:04:03.854Z,6.04
2023-01-03T06:06:30.687Z,6.04
2023-01-03T06:08:57.212Z,6.01
2023-01-03T06:11:23.744Z,6.00
2023-01-03T06:13:50.187Z,5.93
2023-01-03T06:16:37.241Z,5.90
2023-01-03T06:19:05.467Z,5.90
2023-01-03T06:21:32.121Z,5.91
2023-01-03T06:23:58.850Z,5.89
2023-01-03T06:26:25.492Z,5.89
2023-01-03T06:28:52.786Z,5.82
2023-01-03T06:31:19.728Z,5.77
2023-01-03T06:33:47.405Z,5.78
2023-01-03T06:36:18.893Z,5.82
2023-01-03T06:38:45.513Z,5.76
2023-01-03T06:41:14.253Z,5.83
2023-01-03T06:43:45.852Z,5.76
2023-01-03T06:46:32.010Z,5.83
2023-01-03T06:49:17.986Z,5.90
2023-01-03T06:52:05.645Z,5.94
2023-01-03T06:54:34.751Z,5.97
2023-01-03T06:57:01.537Z,6.04
2023-01-03T06:59:28.704Z,6.05
2023-01-03T07:01:56.032Z,6.08
2023-01-03T07:04:24.272Z,6.07
2023-01-03T07:06:50.881Z,6.11
2023-01-03T07:09:17.911Z,6.15
2023-01-03T07:11:44.630Z,6.15
2023-01-03T07:14:11.960Z,6.17
2023-01-03T07:16:47.002Z,6.22
2023-01-03T07:19:18.892Z,6.26
2023-01-03T07:21:46.369Z,6.25
2023-01-03T07:24:15.714Z,6.31
2023-01-03T07:26:42.216Z,6.34
2023-01-03T07:33:39.726Z,6.46
2023-01-03T07:36:11.843Z,6.44
2023-01-03T07:38:40.283Z,6.41
2023-01-03T07:41:13.638Z,6.48
2023-01-03T07:43:44.837Z,6.53
2023-01-03T07:46:22.884Z,6.57
2023-01-03T07:48:52.142Z,6.66
2023-01-03T07:51:20.989Z,6.66
2023-01-03T07:53:52.073Z,6.82
2023-01-03T07:56:20.387Z,6.92
2023-01-03T07:58:48.236Z,6.90
2023-01-03T08:01:19.362Z,6.87
2023-01-03T08:03:46.611Z,6.94
2023-01-03T08:06:16.805Z,6.93
2023-01-03T08:08:45.201Z,6.99
2023-01-03T08:11:35.127Z,7.01
2023-01-03T08:14:01.595Z,7.10
2023-01-03T08:16:28.299Z,7.14
2023-01-03T08:18:54.910Z,7.21
2023-01-03T08:21:21.520Z,7.21
2023-01-03T08:23:50.587Z,7.24
2023-01-03T08:26:25.070Z,7.28
2023-01-03T08:28:52.528Z,7.27
2023-01-03T08:31:22.074Z,7.28
2023-01-03T08:34:11.839Z,7.32
2023-01-03T08:36:47.785Z,7.30
2023-01-03T08:39:18.788Z,7.30
2023-01-03T08:41:50.065Z,7.36
2023-01-03T08:44:20.243Z,7.44
2023-01-03T08:46:51.389Z,7.45
2023-01-03T08:49:22.368Z,7.50
2023-01-03T08:51:49.146Z,7.45
2023-01-03T08:54:15.872Z,7.51
2023-01-03T08:56:42.432Z,7.51
2023-01-03T08:59:09.004Z,7.61
2023-01-03T09:01:35.758Z,7.94
2023-01-03T09:04:03.562Z,8.69
2023-01-03T09:06:31.037Z,9.18
2023-01-03T09:08:57.580Z,9.61
2023-01-03T09:11:24.126Z,9.87
2023-01-03T09:13:51.881Z,10.05
2023-01-03T09:16:18.748Z,10.19
2023-01-03T09:18:45.354Z,10.33
2023-01-03T09:21:13.355Z,10.05
2023-01-03T09:23:40.063Z,10.23
2023-01-03T09:26:07.013Z,9.80
2023-01-03T09:28:35.108Z,9.64
2023-01-03T09:31:02.573Z,9.22
2023-01-03T09:33:29.193Z,8.96
2023-01-03T09:35:55.916Z,8.81
2023-01-03T09:38:23.494Z,8.64
2023-01-03T09:41:02.745Z,8.64
2023-01-03T09:43:36.985Z,8.68
2023-01-03T09:46:05.984Z,8.69
2023-01-03T09:48:36.095Z,8.78
2023-01-03T09:51:19.656Z,8.85
2023-01-03T09:54:07.789Z,8.91
2023-01-03T09:56:53.035Z,8.88
2023-01-03T09:59:37.962Z,8.85
2023-01-03T10:03:02.718Z,9.08
2023-01-03T10:05:37.162Z,9.32
2023-01-03T10:08:06.806Z,9.29
2023-01-03T10:10:51.370Z,9.29
2023-01-03T10:13:42.623Z,9.36
2023-01-03T10:16:15.892Z,9.58
2023-01-03T10:19:13.952Z,10.30
2023-01-03T10:21:43.380Z,11.19
2023-01-03T10:24:22.958Z,11.67
2023-01-03T10:27:00.359Z,11.12
2023-01-03T10:29:27.597Z,11.08
2023-01-03T10:32:24.456Z,10.94
2023-01-03T10:35:05.185Z,10.64
2023-01-03T10:37:31.747Z,10.64
2023-01-03T10:40:05.240Z,10.48
2023-01-03T10:42:35.324Z,10.73
2023-01-03T10:45:06.805Z,10.85
2023-01-03T10:47:33.438Z,11.29
2023-01-03T10:50:01.102Z,13.03
2023-01-03T10:52:38.340Z,13.88
2023-01-03T10:55:13.271Z,14.05
2023-01-03T10:57:50.701Z,14.43
2023-01-03T11:00:35.787Z,14.43
2023-01-03T11:03:10.307Z,14.92
2023-01-03T11:05:38.211Z,15.40
2023-01-03T11:08:13.305Z,15.86
2023-01-03T11:10:54.872Z,15.38
2023-01-03T11:13:31.907Z,15.59
2023-01-03T11:16:01.645Z,15.19
2023-01-03T11:18:29.943Z,15.66
2023-01-03T11:21:31.028Z,15.97
2023-01-03T11:24:12.856Z,16.25
2023-01-03T11:27:02.806Z,16.55
2023-01-03T11:29:37.175Z,15.52
2023-01-03T11:32:21.873Z,15.97
2023-01-03T11:35:24.371Z,14.67
2023-01-03T11:38:36.356Z,13.77
2023-01-03T11:41:21.184Z,12.97
2023-01-03T11:44:07.821Z,12.71
2023-01-03T11:46:55.653Z,12.35
2023-01-03T11:49:33.514Z,12.29
2023-01-03T11:52:11.931Z,11.93
2023-01-03T11:55:12.245Z,11.89
2023-01-03T11:57:53.914Z,11.87
2023-01-03T12:00:26.553Z,11.73
2023-01-03T12:03:03.063Z,11.67
2023-01-03T12:05:41.919Z,11.76
2023-01-03T12:08:29.450Z,11.69
2023-01-03T12:11:13.265Z,11.62
2023-01-03T12:13:52.411Z,11.75
2023-01-03T12:16:26.328Z,12.34
2023-01-03T12:19:14.636Z,12.93
2023-01-03T12:21:48.208Z,12.71
2023-01-03T12:24:33.252Z,12.29
2023-01-03T12:27:14.719Z,12.93
2023-01-03T12:29:54.628Z,13.81
2023-01-03T12:32:39.790Z,14.13
2023-01-03T12:35:25.439Z,14.41
2023-01-03T12:37:52.288Z,14.38
2023-01-03T12:40:33.990Z,14.53
2023-01-03T12:43:22.318Z,14.61
2023-01-03T12:46:13.713Z,14.29
2023-01-03T12:49:02.147Z,14.50
2023-01-03T12:51:30.209Z,13.71
2023-01-03T12:54:16.701Z,14.19
2023-01-03T12:57:14.799Z,14.52
2023-01-03T13:00:13.458Z,14.29
2023-01-03T13:02:49.197Z,14.71
2023-01-03T13:05:32.874Z,14.98
2023-01-03T13:08:12.396Z,14.70
2023-01-03T13:10:43.678Z,14.95
2023-01-03T13:13:17.027Z,15.45
2023-01-03T13:15:43.712Z,16.34
2023-01-03T13:18:20.819Z,15.97
2023-01-03T13:20:51.226Z,14.71
2023-01-03T13:23:33.021Z,15.22
2023-01-03T13:26:05.791Z,14.44
2023-01-03T13:28:40.423Z,14.27
2023-01-03T13:31:18.886Z,14.13
2023-01-03T13:33:48.531Z,13.71
2023-01-03T13:36:18.505Z,13.41
2023-01-03T13:38:45.628Z,13.13
2023-01-03T13:41:53.285Z,12.96
2023-01-03T13:44:22.175Z,12.58
2023-01-03T13:46:50.747Z,12.42
2023-01-03T13:49:21.487Z,12.21
2023-01-03T13:51:57.305Z,12.38
2023-01-03T13:54:36.168Z,12.21
2023-01-03T13:57:05.462Z,12.14
2023-01-03T13:59:44.445Z,11.97
2023-01-03T14:02:48.520Z,12.24
2023-01-03T14:05:56.657Z,12.34
2023-01-03T14:08:35.179Z,12.57
2023-01-03T14:11:42.497Z,12.92
2023-01-03T14:14:17.828Z,12.24
2023-01-03T14:16:47.796Z,12.03
2023-01-03T14:19:22.609Z,12.47
2023-01-03T14:22:26.590Z,12.85
2023-01-03T14:24:57.179Z,12.75
2023-01-03T14:27:28.124Z,12.69
2023-01-03T14:29:56.909Z,12.52
2023-01-03T14:32:30.418Z,12.22
2023-01-03T14:35:00.823Z,12.13
2023-01-03T14:37:27.919Z,12.07
2023-01-03T14:39:54.897Z,12.00
2023-01-03T14:42:29.830Z,11.80
2023-01-03T14:45:01.930Z,11.96
2023-01-03T14:47:35.663Z,11.87
2023-01-03T14:50:03.920Z,11.65
2023-01-03T14:52:32.485Z,11.46
2023-01-03T14:55:04.834Z,11.38
2023-01-03T14:57:32.112Z,11.53
2023-01-03T15:00:01.879Z,11.71
2023-01-03T15:02:34.351Z,11.87
2023-01-03T15:05:02.710Z,11.87
2023-01-03T15:07:39.163Z,11.89
2023-01-03T15:10:21.655Z,11.86
2023-01-03T15:12:50.546Z,11.65
2023-01-03T15:15:25.295Z,11.42
2023-01-03T15:17:55.588Z,11.38
2023-01-03T15:20:34.802Z,11.18
2023-01-03T15:23:01.993Z,11.08
2023-01-03T15:25:37.667Z,11.06
2023-01-03T15:28:13.252Z,10.97
2023-01-03T15:30:48.525Z,10.94
2023-01-03T15:33:32.429Z,10.90
2023-01-03T15:36:03.262Z,10.83
2023-01-03T15:38:38.125Z,10.73
2023-01-03T15:41:43.607Z,10.64
2023-01-03T15:44:15.085Z,10.36
2023-01-03T15:46:44.875Z,10.32
2023-01-03T15:49:14.674Z,10.22
2023-01-03T15:51:41.140Z,10.18
2023-01-03T15:54:16.124Z,10.05
2023-01-03T15:57:01.749Z,10.06
2023-01-03T15:59:31.167Z,9.92
2023-01-03T16:01:58.017Z,9.85
2023-01-03T16:04:26.400Z,9.90
2023-01-03T16:06:54.896Z,9.85
2023-01-03T16:09:21.669Z,9.78
2023-01-03T16:11:57.403Z,9.73
2023-01-03T16:14:34.815Z,9.70
2023-01-03T16:17:02.445Z,9.61
2023-01-03T16:19:30.032Z,9.53
2023-01-03T16:24:54.772Z,9.39
2023-01-03T16:27:25.144Z,9.39
2023-01-03T16:29:52.345Z,9.36
2023-01-03T16:32:28.610Z,9.36
2023-01-03T16:35:28.892Z,9.27
2023-01-03T16:37:56.235Z,9.18
2023-01-03T16:40:22.857Z,9.19
2023-01-03T16:42:49.362Z,9.13
2023-01-03T16:45:17.443Z,9.18
2023-01-03T16:47:44.502Z,9.09
2023-01-03T16:50:16.559Z,9.09
2023-01-03T16:53:01.291Z,9.09
2023-01-03T16:55:41.908Z,9.03
2023-01-03T16:58:15.495Z,9.03
2023-01-03T17:00:42.011Z,9.09
2023-01-03T17:03:08.620Z,9.05
2023-01-03T17:05:37.611Z,9.01
2023-01-03T17:08:12.418Z,8.95
2023-01-03T17:10:41.867Z,8.98
2023-01-03T17:13:24.293Z,9.01
2023-01-03T17:15:53.062Z,8.93
2023-01-03T17:18:24.449Z,8.96
2023-01-03T17:21:06.015Z,8.92
2023-01-03T17:23:37.700Z,8.91
2023-01-03T17:26:04.304Z,8.89
2023-01-03T17:28:31.103Z,8.86
2023-01-03T17:30:57.725Z,8.81
2023-01-03T17:33:28.813Z,8.86
2023-01-03T17:36:00.651Z,8.82
2023-01-03T17:38:28.582Z,9.08
2023-01-03T17:40:56.778Z,8.86
2023-01-03T17:43:24.887Z,8.91
2023-01-03T17:46:20.740Z,8.79
2023-01-03T17:49:08.570Z,8.78
2023-01-03T17:51:35.261Z,8.71
2023-01-03T17:54:02.129Z,8.72
2023-01-03T17:56:29.766Z,8.74
2023-01-03T17:58:57.213Z,8.71
2023-01-03T18:01:27.682Z,8.67
2023-01-03T18:03:54.299Z,8.62
2023-01-03T18:06:33.770Z,8.62
2023-01-03T18:09:03.851Z,8.62
2023-01-03T18:11:30.644Z,8.61
2023-01-03T18:13:57.168Z,8.51
2023-01-03T18:16:24.273Z,8.48
2023-01-03T18:18:50.938Z,8.37
2023-01-03T18:21:23.470Z,8.40
2023-01-03T18:24:01.350Z,8.37
2023-01-03T18:26:33.775Z,8.26
2023-01-03T18:29:00.692Z,8.22
2023-01-03T18:31:28.593Z,8.23
2023-01-03T18:33:55.042Z,8.14
2023-01-03T18:36:35.842Z,8.09
2023-01-03T18:39:12.558Z,8.13
2023-01-03T18:41:40.072Z,8.12
2023-01-03T18:44:29.273Z,8.13
2023-01-03T18:46:56.213Z,8.17
2023-01-03T18:49:22.723Z,8.12
2023-01-03T18:51:52.781Z,8.16
2023-01-03T19:12:15.946Z,7.93
2023-01-03T19:22:57.987Z,7.83
2023-01-03T19:25:29.939Z,7.82
2023-01-03T19:28:01.192Z,7.82
2023-01-03T19:30:39.060Z,7.81
2023-01-03T19:33:06.725Z,7.75
2023-01-03T19:35:34.206Z,7.76
2023-01-03T19:38:00.783Z,7.78
2023-01-03T19:40:34.806Z,7.78
2023-01-03T19:43:01.889Z,7.72
2023-01-03T19:45:41.051Z,7.69
2023-01-03T19:48:18.103Z,7.66
2023-01-03T19:50:44.883Z,7.69
2023-01-03T19:53:12.636Z,7.68
2023-01-03T19:55:42.417Z,7.61
2023-01-03T19:58:24.724Z,7.66
2023-01-03T20:00:52.117Z,7.65
2023-01-03T20:03:29.789Z,7.64
2023-01-03T20:05:56.964Z,7.65
2023-01-03T20:08:23.644Z,7.59
2023-01-03T20:10:53.381Z,7.62
2023-01-03T20:13:24.388Z,7.56
2023-01-03T20:15:53.475Z,7.61
2023-01-03T20:18:36.868Z,7.68
2023-01-03T20:21:21.435Z,7.62
2023-01-03T20:23:55.583Z,7.61
2023-01-03T20:26:25.085Z,7.56
2023-01-03T20:28:54.935Z,7.62
2023-01-03T20:31:21.754Z,7.66
2023-01-03T20:33:48.571Z,7.71
2023-01-03T20:36:27.957Z,7.58
2023-01-03T20:38:58.390Z,7.61
2023-01-03T20:41:36.828Z,7.65
2023-01-03T20:44:05.272Z,7.66
2023-01-03T20:46:31.979Z,7.61
2023-01-03T20:49:01.382Z,7.55
2023-01-03T20:51:28.103Z,7.62
2023-01-03T20:53:55.547Z,7.58
2023-01-03T20:56:23.203Z,7.64
2023-01-03T20:58:50.166Z,7.65
2023-01-03T21:01:17.592Z,7.59
2023-01-03T21:03:44.499Z,7.61
2023-01-03T21:06:18.582Z,7.59
2023-01-03T21:08:54.277Z,7.55
2023-01-03T21:11:25.571Z,7.55
2023-01-03T21:13:52.945Z,7.51
2023-01-03T21:16:26.726Z,7.48
2023-01-03T21:18:53.559Z,7.50
2023-01-03T21:21:22.519Z,7.51
2023-01-03T21:23:49.116Z,7.50
2023-01-03T21:26:15.601Z,7.45
2023-01-03T21:28:42.446Z,7.45
2023-01-03T21:31:16.718Z,7.41
2023-01-03T21:33:43.674Z,7.44
2023-01-03T21:36:23.254Z,7.41
2023-01-03T21:38:50.939Z,7.41
2023-01-03T21:41:20.133Z,7.41
2023-01-03T21:43:46.667Z,7.42
2023-01-03T21:46:20.740Z,7.34
2023-01-03T21:48:47.580Z,7.35
2023-01-03T21:51:18.992Z,7.38
2023-01-03T21:53:54.719Z,7.41
2023-01-03T21:56:23.664Z,7.38
2023-01-03T21:58:50.553Z,7.45
2023-01-03T22:01:19.772Z,7.44
2023-01-03T22:04:04.991Z,7.47
2023-01-03T22:06:31.528Z,7.50
2023-01-03T22:09:00.086Z,7.47
2023-01-03T22:11:28.205Z,7.51
2023-01-03T22:13:56.993Z,7.52
2023-01-03T22:16:23.962Z,7.51
2023-01-03T22:18:50.666Z,7.47
2023-01-03T22:21:17.501Z,7.59
2023-01-03T22:23:43.998Z,7.50
2023-01-03T22:26:12.937Z,7.44
2023-01-03T22:28:45.203Z,7.50
2023-01-03T22:31:19.896Z,7.42
2023-01-03T22:33:49.132Z,7.47
2023-01-03T22:36:16.253Z,7.41
2023-01-03T22:38:43.392Z,7.40
2023-01-03T22:41:12.689Z,7.28
2023-01-03T22:43:39.650Z,7.25
2023-01-03T22:46:14.640Z,7.31
2023-01-03T22:48:41.997Z,7.28
2023-01-03T22:51:12.796Z,7.38
2023-01-03T22:53:43.269Z,7.45
2023-01-03T22:56:12.244Z,7.47
2023-01-03T22:58:38.830Z,7.50
2023-01-03T23:01:16.193Z,7.45
2023-01-03T23:03:43.999Z,7.44
2023-01-03T23:06:15.636Z,7.45
2023-01-03T23:08:42.379Z,7.41
2023-01-03T23:11:34.187Z,7.41
2023-01-03T23:14:03.446Z,7.41
2023-01-03T23:16:31.178Z,7.42
2023-01-03T23:18:58.799Z,7.45
2023-01-03T23:21:25.232Z,7.40
2023-01-03T23:23:52.563Z,7.35
2023-01-03T23:26:19.322Z,7.36
2023-01-03T23:28:45.861Z,7.42
2023-01-03T23:31:12.434Z,7.40
2023-01-03T23:33:39.010Z,7.38
2023-01-03T23:36:11.261Z,7.42
2023-01-03T23:38:37.818Z,7.48
2023-01-03T23:41:11.939Z,7.52
2023-01-03T23:43:38.855Z,7.61
2023-01-03T23:46:06.377Z,7.65
2023-01-03T23:48:33.563Z,7.68
2023-01-03T23:51:05.076Z,7.76
2023-01-03T23:53:32.133Z,7.78
2023-01-03T23:56:01.377Z,7.86
2023-01-03T23:58:28.054Z,7.96
